createdAt,value
2022-09-04T00:00:57.807Z,13.63
2022-09-04T00:01:57.764Z,13.60
2022-09-04T00:02:57.788Z,13.59
2022-09-04T00:03:57.859Z,13.53
2022-09-04T00:04:57.829Z,13.44
2022-09-04T00:05:57.720Z,13.42
2022-09-04T00:06:57.715Z,13.41
2022-09-04T00:07:57.723Z,13.39
2022-09-04T00:08:57.731Z,13.38
2022-09-04T00:09:57.737Z,13.39
2022-09-04T00:10:57.723Z,13.57
2022-09-04T00:11:57.695Z,13.56
2022-09-04T00:12:57.703Z,13.44
2022-09-04T00:13:57.713Z,13.44
2022-09-04T00:14:57.658Z,13.35
2022-09-04T00:15:57.730Z,13.41
2022-09-04T00:16:57.716Z,13.42
2022-09-04T00:17:57.675Z,13.30
2022-09-04T00:18:57.657Z,13.16
2022-09-04T00:19:58.392Z,13.39
2022-09-04T00:20:57.660Z,13.33
2022-09-04T00:21:57.630Z,13.20
2022-09-04T00:22:57.620Z,13.20
2022-09-04T00:23:57.625Z,13.13
2022-09-04T00:24:57.611Z,13.08
2022-09-04T00:25:57.687Z,13.04
2022-09-04T00:26:57.601Z,13.03
2022-09-04T00:27:57.549Z,13.09
2022-09-04T00:28:57.549Z,13.16
2022-09-04T00:29:57.580Z,13.15
2022-09-04T00:30:58.490Z,13.19
2022-09-04T00:31:57.553Z,13.11
2022-09-04T00:32:58.382Z,13.12
2022-09-04T00:33:57.544Z,13.16
2022-09-04T00:34:57.549Z,13.11
2022-09-04T00:35:57.519Z,13.13
2022-09-04T00:36:57.486Z,13.16
2022-09-04T00:37:57.522Z,13.05
2022-09-04T00:38:57.569Z,13.12
2022-09-04T00:39:57.626Z,13.09
2022-09-04T00:40:57.517Z,13.09
2022-09-04T00:41:57.593Z,13.03
2022-09-04T00:42:57.616Z,13.05
2022-09-04T00:43:57.459Z,12.98
2022-09-04T00:44:57.457Z,13.03
2022-09-04T00:45:57.468Z,13.08
2022-09-04T00:46:57.449Z,13.03
2022-09-04T00:47:57.467Z,13.00
2022-09-04T00:48:57.424Z,13.04
2022-09-04T00:49:57.408Z,12.98
2022-09-04T00:50:57.390Z,12.93
2022-09-04T00:51:57.432Z,12.85
2022-09-04T00:52:59.358Z,12.85
2022-09-04T00:53:57.406Z,12.79
2022-09-04T00:54:57.377Z,12.82
2022-09-04T00:55:57.355Z,12.80
2022-09-04T00:56:57.396Z,12.79
2022-09-04T00:57:57.311Z,12.79
2022-09-04T00:58:57.328Z,12.79
2022-09-04T00:59:57.336Z,12.78
2022-09-04T01:00:57.414Z,12.67
2022-09-04T01:01:57.405Z,12.65
2022-09-04T01:02:58.848Z,12.67
2022-09-04T01:03:58.442Z,12.64
2022-09-04T01:04:57.284Z,12.68
2022-09-04T01:05:57.272Z,12.61
2022-09-04T01:06:57.283Z,12.61
2022-09-04T01:07:57.329Z,12.62
2022-09-04T01:08:57.264Z,12.65
2022-09-04T01:09:57.277Z,12.68
2022-09-04T01:10:57.274Z,12.64
2022-09-04T01:11:57.257Z,12.61
2022-09-04T01:12:57.280Z,12.73
2022-09-04T01:13:57.216Z,12.72
2022-09-04T01:14:57.219Z,12.58
2022-09-04T01:15:57.209Z,12.65
2022-09-04T01:16:57.242Z,12.54
2022-09-04T01:17:57.219Z,12.61
2022-09-04T01:18:57.176Z,12.55
2022-09-04T01:19:57.144Z,12.58
2022-09-04T01:20:57.251Z,12.49
2022-09-04T01:21:57.113Z,12.53
2022-09-04T01:23:31.278Z,12.50
2022-09-04T01:23:57.152Z,12.60
2022-09-04T01:24:57.157Z,12.54
2022-09-04T01:26:29.624Z,12.60
2022-09-04T01:26:57.115Z,12.58
2022-09-04T01:28:31.309Z,12.53
2022-09-04T01:28:57.078Z,12.60
2022-09-04T01:29:57.146Z,12.46
2022-09-04T01:31:29.515Z,12.43
2022-09-04T01:31:57.086Z,12.37
2022-09-04T01:32:57.033Z,12.43
2022-09-04T01:33:57.798Z,12.35
2022-09-04T01:34:57.069Z,12.31
2022-09-04T01:35:57.079Z,12.36
2022-09-04T01:36:57.051Z,12.24
2022-09-04T01:37:57.023Z,12.27
2022-09-04T01:38:57.068Z,12.24
2022-09-04T01:39:57.089Z,12.18
2022-09-04T01:40:57.010Z,12.20
2022-09-04T01:41:56.991Z,12.17
2022-09-04T01:42:56.995Z,12.20
2022-09-04T01:43:56.964Z,12.15
2022-09-04T01:44:56.934Z,12.15
2022-09-04T02:02:37.364Z,11.87
2022-09-04T02:03:37.302Z,11.83
2022-09-04T02:04:38.957Z,11.80
2022-09-04T02:05:38.566Z,11.83
2022-09-04T02:06:38.492Z,11.86
2022-09-04T02:07:38.437Z,11.80
2022-09-04T02:08:38.440Z,11.77
2022-09-04T02:09:38.442Z,11.70
2022-09-04T02:10:38.424Z,11.73
2022-09-04T02:11:38.477Z,11.60
2022-09-04T02:12:38.399Z,11.57
2022-09-04T02:13:38.413Z,11.62
2022-09-04T02:14:38.387Z,11.54
2022-09-04T02:15:38.378Z,11.57
2022-09-04T02:16:38.410Z,11.54
2022-09-04T02:17:38.332Z,11.54
2022-09-04T02:18:38.345Z,11.52
2022-09-04T02:19:38.361Z,11.65
2022-09-04T02:20:38.355Z,11.44
2022-09-04T02:21:38.986Z,11.52
2022-09-04T02:22:38.316Z,11.45
2022-09-04T02:23:38.301Z,11.57
2022-09-04T02:24:38.308Z,11.48
2022-09-04T02:25:38.289Z,11.60
2022-09-04T02:26:38.291Z,11.48
2022-09-04T02:27:38.281Z,11.54
2022-09-04T02:28:38.270Z,11.59
2022-09-04T02:30:12.892Z,11.47
2022-09-04T02:30:38.234Z,11.47
2022-09-04T02:31:38.290Z,11.44
2022-09-04T02:32:38.238Z,11.36
2022-09-04T02:33:38.242Z,11.44
2022-09-04T02:34:38.231Z,11.30
2022-09-04T02:35:38.260Z,11.44
2022-09-04T02:36:38.186Z,11.44
2022-09-04T02:37:38.186Z,11.36
2022-09-04T02:38:38.219Z,11.41
2022-09-04T02:39:38.292Z,11.26
2022-09-04T02:40:38.200Z,11.41
2022-09-04T02:41:38.208Z,11.27
2022-09-04T02:42:38.187Z,11.26
2022-09-04T02:43:38.125Z,11.32
2022-09-04T02:44:38.134Z,11.35
2022-09-04T02:45:38.117Z,11.25
2022-09-04T02:46:42.543Z,11.33
2022-09-04T02:47:40.148Z,11.32
2022-09-04T02:48:38.104Z,11.35
2022-09-04T02:49:38.190Z,11.43
2022-09-04T02:50:38.103Z,11.51
2022-09-04T02:51:38.086Z,11.41
2022-09-04T02:52:38.097Z,11.54
2022-09-04T02:53:38.078Z,11.60
2022-09-04T02:54:38.057Z,11.55
2022-09-04T02:55:38.084Z,11.57
2022-09-04T02:56:38.014Z,11.54
2022-09-04T02:57:38.087Z,11.55
2022-09-04T02:58:38.073Z,11.45
2022-09-04T02:59:38.056Z,11.45
2022-09-04T03:00:38.092Z,11.45
2022-09-04T03:01:38.068Z,11.33
2022-09-04T03:02:38.043Z,11.40
2022-09-04T03:03:38.018Z,11.32
2022-09-04T03:04:37.997Z,11.29
2022-09-04T03:05:37.990Z,11.26
2022-09-04T03:06:38.021Z,11.26
2022-09-04T03:07:38.025Z,11.17
2022-09-04T03:08:37.957Z,11.18
2022-09-04T03:09:37.982Z,11.11
2022-09-04T03:10:37.992Z,11.04
2022-09-04T03:11:37.931Z,11.14
2022-09-04T03:12:37.944Z,11.04
2022-09-04T03:13:37.927Z,11.11
2022-09-04T03:14:37.929Z,10.97
2022-09-04T03:16:11.948Z,10.92
2022-09-04T03:16:37.947Z,11.02
2022-09-04T03:17:38.006Z,11.00
2022-09-04T03:18:37.965Z,10.87
2022-09-04T03:20:10.894Z,10.96
2022-09-04T03:20:37.933Z,10.97
2022-09-04T03:22:10.413Z,10.90
2022-09-04T03:22:37.860Z,10.96
2022-09-04T03:23:37.839Z,10.94
2022-09-04T03:24:37.861Z,10.92
2022-09-04T03:25:37.989Z,10.97
2022-09-04T03:26:37.777Z,10.96
2022-09-04T03:27:37.818Z,10.93
2022-09-04T03:28:37.792Z,10.90
2022-09-04T03:29:37.798Z,10.94
2022-09-04T03:30:37.799Z,10.92
2022-09-04T03:31:37.776Z,10.93
2022-09-04T03:32:37.776Z,10.92
2022-09-04T03:33:37.758Z,10.97
2022-09-04T03:34:37.773Z,10.84
2022-09-04T03:35:38.624Z,10.90
2022-09-04T03:36:37.767Z,10.89
2022-09-04T03:37:37.684Z,10.89
2022-09-04T03:38:37.723Z,10.81
2022-09-04T03:40:12.930Z,10.82
2022-09-04T03:41:11.135Z,10.84
2022-09-04T03:42:10.131Z,10.72
2022-09-04T03:42:37.706Z,10.79
2022-09-04T03:44:11.677Z,10.76
2022-09-04T03:44:37.691Z,10.74
2022-09-04T03:46:11.082Z,10.74
2022-09-04T04:02:25.328Z,10.17
2022-09-04T04:03:26.099Z,10.25
2022-09-04T04:04:59.765Z,10.20
2022-09-04T04:05:26.398Z,10.31
2022-09-04T04:06:59.270Z,10.30
2022-09-04T04:07:58.843Z,10.33
2022-09-04T04:08:58.862Z,10.31
2022-09-04T04:09:26.394Z,10.34
2022-09-04T04:10:26.495Z,10.35
2022-09-04T04:11:26.422Z,10.51
2022-09-04T04:12:27.227Z,10.57
2022-09-04T04:13:26.476Z,10.67
2022-09-04T04:14:26.392Z,10.71
2022-09-04T04:15:27.001Z,10.71
2022-09-04T04:16:27.019Z,10.71
2022-09-04T04:17:58.722Z,10.64
2022-09-04T04:18:26.377Z,10.64
2022-09-04T04:19:26.294Z,10.53
2022-09-04T04:20:26.281Z,10.59
2022-09-04T04:21:26.256Z,10.61
2022-09-04T04:22:26.256Z,10.49
2022-09-04T04:23:26.237Z,10.53
2022-09-04T04:24:26.264Z,10.54
2022-09-04T04:26:00.925Z,10.49
2022-09-04T04:26:26.401Z,10.56
2022-09-04T04:27:59.446Z,10.54
2022-09-04T04:28:26.319Z,10.49
2022-09-04T04:29:26.856Z,10.42
2022-09-04T04:30:26.204Z,10.49
2022-09-04T04:31:26.227Z,10.38
2022-09-04T04:32:26.202Z,10.34
2022-09-04T04:33:26.830Z,10.38
2022-09-04T04:34:26.185Z,10.34
2022-09-04T04:35:26.149Z,10.40
2022-09-04T04:36:59.365Z,10.25
2022-09-04T04:37:26.443Z,10.40
2022-09-04T04:38:28.925Z,10.33
2022-09-04T04:39:30.288Z,10.33
2022-09-04T04:40:27.457Z,10.35
2022-09-04T04:41:26.404Z,10.30
2022-09-04T04:42:26.292Z,10.34
2022-09-04T04:43:26.361Z,10.40
2022-09-04T04:44:26.285Z,10.40
2022-09-04T04:45:27.415Z,10.41
2022-09-04T04:46:27.238Z,10.49
2022-09-04T04:47:27.147Z,10.51
2022-09-04T04:48:26.249Z,10.57
2022-09-04T04:49:26.182Z,10.46
2022-09-04T04:50:26.208Z,10.51
2022-09-04T04:51:26.193Z,10.51
2022-09-04T04:52:26.117Z,10.48
2022-09-04T04:53:26.121Z,10.48
2022-09-04T04:54:26.173Z,10.44
2022-09-04T04:55:26.854Z,10.42
2022-09-04T04:56:26.155Z,10.61
2022-09-04T04:57:26.059Z,10.51
2022-09-04T04:58:26.128Z,10.48
2022-09-04T04:59:26.204Z,10.51
2022-09-04T05:00:27.768Z,10.48
2022-09-04T05:01:27.915Z,10.56
2022-09-04T05:02:26.236Z,10.61
2022-09-04T05:03:26.132Z,10.60
2022-09-04T05:04:26.858Z,10.75
2022-09-04T05:05:26.107Z,10.74
2022-09-04T05:06:26.028Z,10.72
2022-09-04T05:07:25.966Z,10.74
2022-09-04T05:08:26.329Z,10.78
2022-09-04T05:09:26.039Z,10.72
2022-09-04T05:10:26.637Z,10.74
2022-09-04T05:11:26.042Z,10.78
2022-09-04T05:12:26.858Z,10.75
2022-09-04T05:13:26.151Z,10.72
2022-09-04T05:14:26.037Z,10.81
2022-09-04T05:15:26.001Z,10.76
2022-09-04T05:16:26.914Z,10.82
2022-09-04T05:17:25.872Z,10.94
2022-09-04T05:18:25.974Z,10.92
2022-09-04T05:19:25.941Z,10.87
2022-09-04T05:20:25.975Z,11.27
2022-09-04T05:21:25.891Z,11.78
2022-09-04T05:22:26.363Z,12.37
2022-09-04T05:23:28.952Z,12.93
2022-09-04T05:24:25.935Z,13.44
2022-09-04T05:25:26.016Z,13.92
2022-09-04T05:26:25.881Z,14.37
2022-09-04T05:27:25.996Z,14.84
2022-09-04T05:28:25.985Z,15.25
2022-09-04T05:29:29.336Z,15.72
2022-09-04T05:30:27.861Z,16.13
2022-09-04T05:31:25.962Z,16.57
2022-09-04T05:32:25.800Z,16.86
2022-09-04T05:33:25.907Z,17.01
2022-09-04T05:34:25.887Z,17.11
2022-09-04T05:35:25.810Z,17.27
2022-09-04T05:36:26.949Z,17.68
2022-09-04T05:37:25.890Z,17.83
2022-09-04T05:38:26.365Z,17.68
2022-09-04T05:39:26.657Z,17.68
2022-09-04T05:40:25.809Z,17.80
2022-09-04T05:41:26.736Z,17.86
2022-09-04T05:42:26.383Z,17.85
2022-09-04T05:43:26.376Z,17.70
2022-09-04T05:44:26.366Z,17.82
2022-09-04T05:45:25.749Z,17.82
2022-09-04T05:46:25.833Z,17.89
2022-09-04T05:47:30.334Z,18.23
2022-09-04T05:48:27.864Z,18.10
2022-09-04T05:49:25.782Z,17.54
2022-09-04T05:50:25.802Z,17.22
2022-09-04T05:51:25.805Z,17.23
2022-09-04T05:52:25.949Z,17.16
2022-09-04T05:53:25.824Z,17.56
2022-09-04T05:54:25.942Z,18.20
2022-09-04T05:55:26.746Z,18.68
2022-09-04T05:56:25.818Z,19.07
2022-09-04T05:57:25.732Z,19.36
2022-09-04T05:58:26.417Z,19.37
2022-09-04T05:59:26.371Z,19.11
2022-09-04T06:00:26.370Z,19.02
2022-09-04T06:01:25.694Z,18.25
2022-09-04T06:02:25.784Z,17.76
2022-09-04T06:03:25.629Z,17.89
2022-09-04T06:04:25.789Z,18.56
2022-09-04T06:05:26.397Z,18.26
2022-09-04T06:06:25.755Z,18.40
2022-09-04T06:07:25.717Z,18.05
2022-09-04T06:08:28.631Z,18.58
2022-09-04T06:09:26.649Z,18.83
2022-09-04T06:10:26.376Z,18.70
2022-09-04T06:11:25.536Z,18.60
2022-09-04T06:12:25.748Z,18.66
2022-09-04T06:13:27.431Z,18.74
2022-09-04T06:14:25.792Z,18.86
2022-09-04T06:15:27.374Z,19.26
2022-09-04T06:16:25.676Z,19.59
2022-09-04T06:17:25.780Z,20.13
2022-09-04T06:18:26.476Z,20.37
2022-09-04T06:19:26.377Z,20.65
2022-09-04T06:20:25.484Z,20.96
2022-09-04T06:21:26.382Z,21.51
2022-09-04T06:22:26.879Z,22.26
2022-09-04T06:23:26.247Z,23.03
2022-09-04T06:24:25.729Z,22.69
2022-09-04T06:25:25.894Z,22.91
2022-09-04T06:26:26.282Z,23.21
2022-09-04T06:27:27.387Z,23.83
2022-09-04T06:28:25.577Z,24.20
2022-09-04T06:29:25.456Z,24.65
2022-09-04T06:30:25.511Z,25.06
2022-09-04T06:31:25.578Z,24.63
2022-09-04T06:32:25.468Z,24.68
2022-09-04T06:33:25.493Z,24.68
2022-09-04T06:34:25.457Z,24.45
2022-09-04T06:35:26.218Z,23.23
2022-09-04T06:36:26.839Z,22.17
2022-09-04T06:37:25.344Z,21.95
2022-09-04T06:38:25.987Z,21.60
2022-09-04T06:39:25.431Z,20.25
2022-09-04T06:40:25.377Z,19.16
2022-09-04T06:41:26.216Z,18.98
2022-09-04T06:43:00.422Z,18.80
2022-09-04T06:43:29.527Z,18.89
2022-09-04T06:44:25.250Z,19.33
2022-09-04T06:45:25.369Z,19.39
2022-09-04T06:46:26.448Z,19.86
2022-09-04T06:47:25.307Z,19.63
2022-09-04T06:48:25.382Z,20.16
2022-09-04T06:49:25.293Z,20.37
2022-09-04T06:50:26.927Z,20.72
2022-09-04T06:51:25.307Z,21.17
2022-09-04T06:52:25.249Z,21.25
2022-09-04T06:53:25.299Z,21.14
2022-09-04T06:54:25.925Z,21.12
2022-09-04T06:55:27.061Z,20.41
2022-09-04T06:56:25.270Z,20.84
2022-09-04T06:57:25.165Z,21.43
2022-09-04T06:58:25.341Z,21.32
2022-09-04T06:59:25.163Z,21.35
2022-09-04T07:00:25.492Z,21.79
2022-09-04T07:01:25.236Z,22.13
2022-09-04T07:02:25.400Z,21.89
2022-09-04T07:03:25.168Z,21.92
2022-09-04T07:04:26.700Z,21.73
2022-09-04T07:05:25.181Z,22.11
2022-09-04T07:06:25.932Z,22.70
2022-09-04T07:07:25.382Z,23.50
2022-09-04T07:08:25.813Z,22.72
2022-09-04T07:09:25.232Z,21.77
2022-09-04T07:10:25.677Z,21.27
2022-09-04T07:11:25.272Z,21.18
2022-09-04T07:12:25.096Z,21.67
2022-09-04T07:13:25.069Z,22.14
2022-09-04T07:14:25.131Z,22.08
2022-09-04T07:15:25.224Z,22.69
2022-09-04T07:16:25.942Z,22.99
2022-09-04T07:17:25.935Z,23.28
2022-09-04T07:18:25.214Z,23.12
2022-09-04T07:19:25.051Z,22.68
2022-09-04T07:20:25.944Z,22.28
2022-09-04T07:21:27.787Z,21.89
2022-09-04T07:22:25.940Z,21.22
2022-09-04T07:23:26.009Z,21.72
2022-09-04T07:24:26.937Z,21.36
2022-09-04T07:25:25.952Z,21.93
2022-09-04T07:26:25.442Z,22.80
2022-09-04T07:27:24.992Z,23.55
2022-09-04T07:28:25.101Z,24.45
2022-09-04T07:29:26.114Z,24.54
2022-09-04T07:30:26.082Z,24.36
2022-09-04T07:31:25.069Z,24.36
2022-09-04T07:32:25.440Z,23.65
2022-09-04T07:33:25.354Z,24.28
2022-09-04T07:34:25.068Z,24.78
2022-09-04T07:35:25.782Z,25.28
2022-09-04T07:36:29.496Z,24.77
2022-09-04T07:37:27.010Z,24.66
2022-09-04T07:38:25.022Z,24.65
2022-09-04T07:39:24.977Z,24.36
2022-09-04T07:40:24.891Z,24.54
2022-09-04T07:41:25.863Z,25.28
2022-09-04T07:42:26.563Z,24.85
2022-09-04T07:43:26.947Z,25.04
2022-09-04T07:44:25.952Z,25.83
2022-09-04T07:46:00.395Z,26.44
2022-09-04T07:46:25.861Z,26.60
2022-09-04T07:47:24.961Z,25.51
2022-09-04T07:48:26.428Z,24.61
2022-09-04T07:49:25.738Z,24.11
2022-09-04T07:50:25.834Z,24.53
2022-09-04T07:51:25.481Z,25.32
2022-09-04T07:52:25.477Z,25.47
2022-09-04T07:53:24.825Z,26.00
2022-09-04T07:54:25.892Z,26.09
2022-09-04T07:55:25.779Z,25.68
2022-09-04T07:56:25.476Z,25.36
2022-09-04T07:57:24.865Z,25.48
2022-09-04T07:58:26.526Z,26.56
2022-09-04T07:59:24.802Z,27.54
2022-09-04T08:00:24.764Z,27.55
2022-09-04T08:01:24.784Z,27.86
2022-09-04T08:02:24.926Z,27.39
2022-09-04T08:03:25.262Z,26.38
2022-09-04T08:04:24.849Z,26.18
2022-09-04T08:05:25.486Z,26.03
2022-09-04T08:06:24.687Z,24.96
2022-09-04T08:07:24.895Z,23.98
2022-09-04T08:08:24.743Z,23.15
2022-09-04T08:09:25.782Z,22.72
2022-09-04T08:10:24.718Z,23.08
2022-09-04T08:11:24.723Z,23.12
2022-09-04T08:12:25.314Z,23.74
2022-09-04T08:13:24.787Z,24.42
2022-09-04T08:14:25.486Z,24.61
2022-09-04T08:15:24.751Z,24.50
2022-09-04T08:16:25.559Z,24.24
2022-09-04T08:17:24.774Z,24.20
2022-09-04T08:18:24.670Z,24.70
2022-09-04T08:19:25.606Z,25.22
2022-09-04T08:20:24.619Z,25.26
2022-09-04T08:21:24.638Z,25.01
2022-09-04T08:22:28.252Z,24.98
2022-09-04T08:23:25.609Z,25.26
2022-09-04T08:24:24.567Z,25.65
2022-09-04T08:25:24.626Z,25.77
2022-09-04T08:26:24.722Z,25.98
2022-09-04T08:27:57.086Z,25.59
2022-09-04T08:28:24.598Z,24.95
2022-09-04T08:29:24.564Z,24.70
2022-09-04T08:30:24.574Z,25.35
2022-09-04T08:31:56.908Z,25.36
2022-09-04T08:32:24.472Z,26.09
2022-09-04T08:33:25.487Z,26.65
2022-09-04T08:34:24.486Z,27.71
2022-09-04T08:35:24.488Z,28.33
2022-09-04T08:36:24.518Z,28.78
2022-09-04T08:37:24.506Z,29.16
2022-09-04T08:38:24.482Z,29.79
2022-09-04T08:39:24.581Z,29.86
2022-09-04T08:40:24.510Z,29.24
2022-09-04T08:41:25.456Z,28.93
2022-09-04T08:42:25.616Z,28.86
2022-09-04T08:43:25.310Z,28.47
2022-09-04T08:44:25.157Z,28.27
2022-09-04T08:45:24.511Z,27.65
2022-09-04T08:46:28.325Z,28.19
2022-09-04T08:47:25.460Z,28.93
2022-09-04T08:48:25.589Z,29.16
2022-09-04T08:49:24.429Z,29.65
2022-09-04T08:50:24.441Z,28.44
2022-09-04T08:51:24.353Z,28.91
2022-09-04T08:52:24.391Z,29.39
2022-09-04T08:53:25.322Z,29.79
2022-09-04T08:54:24.427Z,30.37
2022-09-04T08:55:24.392Z,30.50
2022-09-04T08:56:24.389Z,30.70
2022-09-04T08:57:24.424Z,30.88
2022-09-04T08:58:26.033Z,29.90
2022-09-04T08:59:25.589Z,28.35
2022-09-04T09:00:24.558Z,28.07
2022-09-04T09:01:24.411Z,27.39
2022-09-04T09:02:24.415Z,27.44
2022-09-04T09:03:24.354Z,26.62
2022-09-04T09:04:24.888Z,27.30
2022-09-04T09:05:25.082Z,28.07
2022-09-04T09:06:24.357Z,29.14
2022-09-04T09:07:24.340Z,29.27
2022-09-04T09:08:27.389Z,29.69
2022-09-04T09:09:27.081Z,30.47
2022-09-04T09:10:26.094Z,30.99
2022-09-04T09:11:24.831Z,31.37
2022-09-04T09:12:25.345Z,31.89
2022-09-04T09:13:24.262Z,32.30
2022-09-04T09:14:24.267Z,32.85
2022-09-04T09:15:24.244Z,33.08
2022-09-04T09:16:24.295Z,31.89
2022-09-04T09:17:58.183Z,29.73
2022-09-04T09:18:56.642Z,28.44
2022-09-04T09:19:24.134Z,27.77
2022-09-04T09:20:24.165Z,27.64
2022-09-04T09:21:24.218Z,28.54
2022-09-04T09:22:57.250Z,28.26
2022-09-04T09:23:24.077Z,27.95
2022-09-04T09:24:24.120Z,28.39
2022-09-04T09:25:25.209Z,28.59
2022-09-04T09:26:24.186Z,29.38
2022-09-04T09:27:24.092Z,28.86
2022-09-04T09:28:24.660Z,29.29
2022-09-04T09:29:24.338Z,29.88
2022-09-04T09:30:24.125Z,30.61
2022-09-04T09:31:24.912Z,30.53
2022-09-04T09:32:24.192Z,30.57
2022-09-04T09:33:24.572Z,30.90
2022-09-04T09:34:24.106Z,31.52
2022-09-04T09:35:24.066Z,31.87
2022-09-04T09:36:24.063Z,31.70
2022-09-04T09:37:24.058Z,30.72
2022-09-04T09:38:24.125Z,30.94
2022-09-04T09:39:24.905Z,31.42
2022-09-04T09:40:24.026Z,31.99
2022-09-04T09:41:24.040Z,31.78
2022-09-04T09:42:24.064Z,31.85
2022-09-04T09:43:24.100Z,32.48
2022-09-04T09:44:24.051Z,33.04
2022-09-04T09:45:24.064Z,33.23
2022-09-04T09:46:24.893Z,32.01
2022-09-04T09:47:23.974Z,31.97
2022-09-04T09:48:23.988Z,32.04
2022-09-04T09:49:23.941Z,31.96
2022-09-04T09:50:24.080Z,31.84
2022-09-04T09:51:23.954Z,31.90
2022-09-04T09:52:23.987Z,31.84
2022-09-04T09:53:24.082Z,31.62
2022-09-04T09:54:23.971Z,30.21
2022-09-04T09:55:23.962Z,28.96
2022-09-04T09:56:23.901Z,28.49
2022-09-04T09:57:33.291Z,28.84
2022-09-04T09:58:24.907Z,29.34
2022-09-04T09:59:23.956Z,28.97
2022-09-04T10:00:23.897Z,28.39
2022-09-04T10:01:23.968Z,28.26
2022-09-04T10:02:23.941Z,28.67
2022-09-04T10:03:24.852Z,28.42
2022-09-04T10:04:23.855Z,28.22
2022-09-04T10:05:23.849Z,28.07
2022-09-04T10:06:23.900Z,28.85
2022-09-04T10:07:23.833Z,29.14
2022-09-04T10:08:35.363Z,29.22
2022-09-04T10:09:24.835Z,30.03
2022-09-04T10:10:23.830Z,30.65
2022-09-04T10:11:23.835Z,31.40
2022-09-04T10:12:23.837Z,30.84
2022-09-04T10:13:23.808Z,29.23
2022-09-04T10:14:25.287Z,27.64
2022-09-04T10:15:24.769Z,28.01
2022-09-04T10:16:23.855Z,28.49
2022-09-04T10:17:23.780Z,29.60
2022-09-04T10:18:23.756Z,30.40
2022-09-04T10:19:23.793Z,30.50
2022-09-04T10:20:23.720Z,30.09
2022-09-04T10:21:23.805Z,29.59
2022-09-04T10:22:23.729Z,28.05
2022-09-04T10:23:23.782Z,27.25
2022-09-04T10:24:23.737Z,26.58
2022-09-04T10:25:23.761Z,25.63
2022-09-04T10:26:23.737Z,25.83
2022-09-04T10:27:23.715Z,26.07
2022-09-04T10:28:23.671Z,26.38
2022-09-04T10:29:23.708Z,26.77
2022-09-04T10:30:23.780Z,26.66
2022-09-04T10:31:23.709Z,26.88
2022-09-04T10:32:23.690Z,27.05
2022-09-04T10:33:23.851Z,26.56
2022-09-04T10:34:23.703Z,26.63
2022-09-04T10:35:23.624Z,27.27
2022-09-04T10:36:23.671Z,28.20
2022-09-04T10:37:23.672Z,28.97
2022-09-04T10:38:23.737Z,29.78
2022-09-04T10:39:24.531Z,30.46
2022-09-04T10:40:23.673Z,30.80
2022-09-04T10:41:24.471Z,30.84
2022-09-04T10:42:23.576Z,30.85
2022-09-04T10:43:23.671Z,31.10
2022-09-04T10:44:23.593Z,31.39
2022-09-04T10:45:23.577Z,31.64
2022-09-04T10:46:23.738Z,31.20
2022-09-04T10:47:23.586Z,30.77
2022-09-04T10:48:27.937Z,30.43
2022-09-04T10:49:25.562Z,29.57
2022-09-04T10:50:23.568Z,29.04
2022-09-04T10:51:23.601Z,28.78
2022-09-04T10:52:23.525Z,29.41
2022-09-04T10:53:23.608Z,30.00
2022-09-04T10:54:23.601Z,30.21
2022-09-04T10:55:23.568Z,30.80
2022-09-04T10:56:23.509Z,31.02
2022-09-04T10:57:23.525Z,30.16
2022-09-04T10:58:23.531Z,28.97
2022-09-04T10:59:23.539Z,27.96
2022-09-04T11:00:23.490Z,27.65
2022-09-04T11:01:23.535Z,27.80
2022-09-04T11:02:23.555Z,27.52
2022-09-04T11:03:23.532Z,27.15
2022-09-04T11:04:23.487Z,26.60
2022-09-04T11:05:23.479Z,27.18
2022-09-04T11:06:23.425Z,27.47
2022-09-04T11:07:26.857Z,27.90
2022-09-04T11:08:25.457Z,28.15
2022-09-04T11:09:23.435Z,28.05
2022-09-04T11:10:23.437Z,27.82
2022-09-04T11:11:23.427Z,27.90
2022-09-04T11:12:23.490Z,28.49
2022-09-04T11:13:23.463Z,29.38
2022-09-04T11:14:23.380Z,30.18
2022-09-04T11:15:23.444Z,30.83
2022-09-04T11:16:23.439Z,30.97
2022-09-04T11:17:24.335Z,30.96
2022-09-04T11:18:23.384Z,31.15
2022-09-04T11:19:23.395Z,31.58
2022-09-04T11:20:23.313Z,31.62
2022-09-04T11:21:23.308Z,31.78
2022-09-04T11:22:23.370Z,31.71
2022-09-04T11:23:23.344Z,31.80
2022-09-04T11:24:24.368Z,30.87
2022-09-04T11:25:23.327Z,29.19
2022-09-04T11:26:23.309Z,28.52
2022-09-04T11:27:23.383Z,28.17
2022-09-04T11:28:23.332Z,28.54
2022-09-04T11:29:23.327Z,28.56
2022-09-04T11:30:23.308Z,28.51
2022-09-04T11:31:23.294Z,28.86
2022-09-04T11:32:23.340Z,28.67
2022-09-04T11:33:23.347Z,29.17
2022-09-04T11:34:23.272Z,29.16
2022-09-04T11:35:23.296Z,29.41
2022-09-04T11:36:23.233Z,30.21
2022-09-04T11:37:23.213Z,30.78
2022-09-04T11:38:23.222Z,31.18
2022-09-04T11:39:23.226Z,31.55
2022-09-04T11:40:23.329Z,31.74
2022-09-04T11:41:23.203Z,31.99
2022-09-04T11:42:23.216Z,31.78
2022-09-04T11:43:23.277Z,31.89
2022-09-04T11:44:23.955Z,31.36
2022-09-04T11:45:23.232Z,30.09
2022-09-04T11:46:23.177Z,29.90
2022-09-04T11:47:23.202Z,29.57
2022-09-04T11:48:23.152Z,29.24
2022-09-04T11:49:23.140Z,29.07
2022-09-04T11:50:23.150Z,28.38
2022-09-04T11:51:23.126Z,27.65
2022-09-04T11:52:23.107Z,27.39
2022-09-04T11:53:23.126Z,27.37
2022-09-04T11:54:23.115Z,27.64
2022-09-04T11:55:23.112Z,28.19
2022-09-04T11:56:23.061Z,28.98
2022-09-04T11:57:23.125Z,29.51
2022-09-04T11:58:23.117Z,30.12
2022-09-04T11:59:23.083Z,29.24
2022-09-04T12:00:23.126Z,28.45
2022-09-04T12:01:23.879Z,27.89
2022-09-04T12:02:23.071Z,27.78
2022-09-04T12:03:23.137Z,27.90
2022-09-04T12:04:23.162Z,28.08
2022-09-04T12:05:24.023Z,28.48
2022-09-04T12:06:23.055Z,29.02
2022-09-04T12:07:23.008Z,29.44
2022-09-04T12:08:23.000Z,29.44
2022-09-04T12:09:23.030Z,29.47
2022-09-04T12:10:23.083Z,30.02
2022-09-04T12:11:22.998Z,30.03
2022-09-04T12:12:23.011Z,30.02
2022-09-04T12:13:23.042Z,29.05
2022-09-04T12:14:22.964Z,28.57
2022-09-04T12:15:23.960Z,28.67
2022-09-04T12:16:23.067Z,29.14
2022-09-04T12:17:22.940Z,28.89
2022-09-04T12:18:22.942Z,29.27
2022-09-04T12:19:22.953Z,29.59
2022-09-04T12:20:22.940Z,30.18
2022-09-04T12:21:22.925Z,30.24
2022-09-04T12:22:22.967Z,29.84
2022-09-04T12:23:22.995Z,29.29
2022-09-04T12:24:22.921Z,29.20
2022-09-04T12:25:22.889Z,28.81
2022-09-04T12:26:22.908Z,29.14
2022-09-04T12:27:22.899Z,29.41
2022-09-04T12:28:22.902Z,29.39
2022-09-04T12:29:22.910Z,29.07
2022-09-04T12:30:22.852Z,28.52
2022-09-04T12:31:22.925Z,28.10
2022-09-04T12:32:22.890Z,27.75
2022-09-04T12:33:22.991Z,28.14
2022-09-04T12:34:22.883Z,28.67
2022-09-04T12:35:22.890Z,28.88
2022-09-04T12:36:22.856Z,28.59
2022-09-04T12:37:22.880Z,28.32
2022-09-04T12:38:22.876Z,28.48
2022-09-04T12:39:22.858Z,28.05
2022-09-04T12:40:22.798Z,27.80
2022-09-04T12:41:22.845Z,27.70
2022-09-04T12:42:22.856Z,27.47
2022-09-04T12:43:22.870Z,27.44
2022-09-04T12:44:22.751Z,27.47
2022-09-04T12:45:22.937Z,28.02
2022-09-04T12:46:22.755Z,28.23
2022-09-04T12:47:22.749Z,28.11
2022-09-04T12:48:22.725Z,27.98
2022-09-04T12:49:23.818Z,27.70
2022-09-04T12:50:22.731Z,27.37
2022-09-04T12:51:23.737Z,27.47
2022-09-04T12:52:23.514Z,27.96
2022-09-04T12:53:22.758Z,28.25
2022-09-04T12:54:22.787Z,28.41
2022-09-04T12:55:23.701Z,28.67
2022-09-04T12:56:22.668Z,28.84
2022-09-04T12:57:22.723Z,29.16
2022-09-04T12:58:22.723Z,29.02
2022-09-04T12:59:22.628Z,28.78
2022-09-04T13:00:23.683Z,27.98
2022-09-04T13:01:22.847Z,27.63
2022-09-04T13:02:22.721Z,27.74
2022-09-04T13:03:22.723Z,28.01
2022-09-04T13:04:22.622Z,27.98
2022-09-04T13:05:23.619Z,28.01
2022-09-04T13:06:22.609Z,28.08
2022-09-04T13:07:22.707Z,27.95
2022-09-04T13:08:22.604Z,28.00
2022-09-04T13:09:22.615Z,27.98
2022-09-04T13:10:22.624Z,27.93
2022-09-04T13:11:22.555Z,27.98
2022-09-04T13:12:22.602Z,28.00
2022-09-04T13:13:22.640Z,27.93
2022-09-04T13:14:22.574Z,27.86
2022-09-04T13:15:22.548Z,27.90
2022-09-04T13:16:22.628Z,27.93
2022-09-04T13:17:22.581Z,27.98
2022-09-04T13:18:22.625Z,28.05
2022-09-04T13:19:22.548Z,27.96
2022-09-04T13:20:22.548Z,27.93
2022-09-04T13:21:22.632Z,27.92
2022-09-04T13:22:22.506Z,27.90
2022-09-04T13:23:22.749Z,27.60
2022-09-04T13:24:22.487Z,27.77
2022-09-04T13:25:22.567Z,27.86